createdAt,value
2019-06-15T00:01:27.855Z,99.90
2019-06-15T00:03:56.275Z,99.90
2019-06-15T00:06:24.668Z,99.90
2019-06-15T00:08:53.066Z,99.90
2019-06-15T00:11:21.549Z,99.90
2019-06-15T00:13:49.974Z,99.90
2019-06-15T00:16:18.343Z,99.90
2019-06-15T00:18:46.754Z,99.90
2019-06-15T00:21:15.175Z,99.90
2019-06-15T00:23:43.644Z,99.90
2019-06-15T00:26:12.053Z,99.90
2019-06-15T00:28:40.467Z,99.90
2019-06-15T00:31:08.858Z,99.90
2019-06-15T00:33:37.346Z,99.90
2019-06-15T00:36:05.778Z,99.90
2019-06-15T00:38:34.176Z,99.90
2019-06-15T00:41:02.574Z,99.90
2019-06-15T00:43:31.012Z,99.90
2019-06-15T00:45:59.420Z,99.90
2019-06-15T00:48:27.799Z,99.90
2019-06-15T00:50:56.208Z,99.90
2019-06-15T00:53:24.627Z,99.90
2019-06-15T00:55:53.082Z,99.90
2019-06-15T00:58:21.495Z,99.90
2019-06-15T01:00:50.030Z,99.90
2019-06-15T01:03:18.469Z,99.90
2019-06-15T01:05:46.928Z,99.90
2019-06-15T01:08:15.350Z,99.90
2019-06-15T01:10:43.747Z,99.90
2019-06-15T01:13:12.148Z,99.90
2019-06-15T01:15:40.555Z,99.90
2019-06-15T01:18:08.944Z,99.90
2019-06-15T01:20:37.334Z,99.90
2019-06-15T01:23:05.983Z,99.90
2019-06-15T01:25:34.451Z,99.90
2019-06-15T01:28:02.902Z,99.90
2019-06-15T01:30:31.363Z,99.90
2019-06-15T01:32:59.837Z,99.90
2019-06-15T01:35:28.226Z,99.90
2019-06-15T01:37:56.639Z,99.90
2019-06-15T01:40:25.034Z,99.90
2019-06-15T01:42:53.727Z,99.90
2019-06-15T01:45:26.369Z,99.90
2019-06-15T01:47:55.715Z,99.90
2019-06-15T01:50:24.191Z,99.90
2019-06-15T01:52:52.672Z,99.90
2019-06-15T01:55:21.443Z,99.90
2019-06-15T01:57:49.912Z,99.90
2019-06-15T02:00:20.818Z,99.90
2019-06-15T02:02:49.555Z,99.90
2019-06-15T02:05:18.499Z,99.90
2019-06-15T02:07:46.878Z,99.90
2019-06-15T02:10:18.697Z,99.90
2019-06-15T02:12:47.067Z,99.90
2019-06-15T02:15:15.696Z,99.90
2019-06-15T02:17:44.182Z,99.90
2019-06-15T02:20:13.115Z,99.90
2019-06-15T02:22:41.531Z,99.90
2019-06-15T02:25:10.138Z,99.90
2019-06-15T02:27:38.534Z,99.90
2019-06-15T02:30:07.375Z,99.90
2019-06-15T02:32:35.781Z,99.90
2019-06-15T02:35:06.524Z,99.90
2019-06-15T02:37:34.994Z,99.90
2019-06-15T02:40:05.353Z,99.90
2019-06-15T02:44:56.512Z,99.90
2019-06-15T02:47:24.916Z,99.90
2019-06-15T02:49:53.330Z,99.90
2019-06-15T02:52:21.812Z,99.90
2019-06-15T02:54:50.291Z,99.90
2019-06-15T02:57:18.784Z,99.90
2019-06-15T02:59:47.178Z,99.90
2019-06-15T03:02:15.675Z,99.90
2019-06-15T03:04:44.068Z,99.90
2019-06-15T03:07:12.622Z,99.90
2019-06-15T03:09:41.171Z,99.90
2019-06-15T03:12:09.967Z,99.90
2019-06-15T03:14:39.419Z,99.90
2019-06-15T03:17:07.814Z,99.90
2019-06-15T03:19:36.217Z,99.90
2019-06-15T03:22:06.509Z,99.90
2019-06-15T03:24:34.740Z,99.90
2019-06-15T03:27:03.131Z,99.90
2019-06-15T03:29:31.615Z,99.90
2019-06-15T03:32:00.011Z,99.90
2019-06-15T03:34:28.412Z,99.90
2019-06-15T03:36:56.906Z,99.90
2019-06-15T03:39:25.323Z,99.90
2019-06-15T03:41:53.770Z,99.90
2019-06-15T03:44:22.178Z,99.90
2019-06-15T03:46:50.595Z,99.90
2019-06-15T03:49:19.007Z,99.90
2019-06-15T03:51:47.402Z,99.90
2019-06-15T03:54:15.808Z,99.90
2019-06-15T03:56:44.267Z,99.90
2019-06-15T03:59:12.663Z,99.90
2019-06-15T04:01:51.503Z,99.90
2019-06-15T04:04:19.895Z,99.90
2019-06-15T04:06:48.382Z,99.90
2019-06-15T04:09:16.850Z,99.90
2019-06-15T04:11:45.275Z,99.90
2019-06-15T04:14:13.654Z,99.90
2019-06-15T04:16:42.110Z,99.90
2019-06-15T04:19:10.787Z,99.90
2019-06-15T04:21:39.203Z,99.90
2019-06-15T04:24:07.618Z,99.90
2019-06-15T04:26:36.663Z,99.90
2019-06-15T04:29:05.276Z,99.90
2019-06-15T04:31:33.675Z,99.90
2019-06-15T04:34:02.079Z,99.90
2019-06-15T04:36:30.479Z,99.90
2019-06-15T04:38:58.904Z,99.90
2019-06-15T04:41:27.291Z,99.90
2019-06-15T04:43:55.687Z,99.90
2019-06-15T04:46:24.108Z,99.90
2019-06-15T04:48:52.493Z,99.90
2019-06-15T04:51:20.907Z,99.90
2019-06-15T04:53:49.340Z,99.90
2019-06-15T04:56:17.738Z,99.90
2019-06-15T04:58:46.138Z,99.90
2019-06-15T05:01:14.536Z,99.90
2019-06-15T05:03:42.964Z,99.90
2019-06-15T05:06:11.353Z,99.90
2019-06-15T05:08:39.752Z,99.90
2019-06-15T05:11:08.150Z,99.90
2019-06-15T05:13:36.549Z,99.90
2019-06-15T05:16:05.007Z,99.90
2019-06-15T05:18:33.466Z,99.90
2019-06-15T05:21:01.876Z,99.90
2019-06-15T05:23:30.289Z,99.90
2019-06-15T05:25:58.782Z,99.90
2019-06-15T05:28:27.179Z,99.90
2019-06-15T05:30:55.578Z,99.90
2019-06-15T05:33:23.996Z,99.90
2019-06-15T05:35:52.409Z,99.90
2019-06-15T05:38:20.818Z,99.90
2019-06-15T05:40:49.221Z,99.90
2019-06-15T05:43:17.610Z,99.90
2019-06-15T05:45:46.022Z,99.90
2019-06-15T05:48:14.420Z,99.90
2019-06-15T05:50:42.819Z,99.90
2019-06-15T05:53:11.253Z,99.90
2019-06-15T05:55:39.640Z,99.90
2019-06-15T05:58:08.038Z,99.90
2019-06-15T06:00:36.443Z,99.90
2019-06-15T06:03:05.059Z,99.90
2019-06-15T06:05:33.462Z,99.90
2019-06-15T06:08:01.857Z,99.90
2019-06-15T06:10:30.256Z,99.90
2019-06-15T06:12:58.662Z,99.90
2019-06-15T06:15:27.124Z,99.90
2019-06-15T06:17:55.573Z,99.90
2019-06-15T06:20:23.970Z,99.90
2019-06-15T06:22:52.383Z,99.90
2019-06-15T06:25:20.779Z,99.90
2019-06-15T06:27:49.173Z,99.90
2019-06-15T06:30:17.593Z,99.90
2019-06-15T06:32:45.995Z,99.90
2019-06-15T06:35:14.536Z,99.90
2019-06-15T06:37:42.944Z,99.90
2019-06-15T06:40:12.088Z,99.90
2019-06-15T06:42:40.552Z,99.90
2019-06-15T06:45:10.198Z,99.90
2019-06-15T06:47:38.764Z,99.90
2019-06-15T06:50:08.210Z,99.90
2019-06-15T06:52:36.626Z,99.70
2019-06-15T06:55:06.700Z,99.60
2019-06-15T06:57:35.168Z,99.60
2019-06-15T07:00:06.151Z,99.60
2019-06-15T07:02:34.574Z,99.10
2019-06-15T07:05:02.983Z,98.60
2019-06-15T07:07:31.517Z,97.60
2019-06-15T07:10:00.158Z,97.20
2019-06-15T07:12:28.608Z,96.60
2019-06-15T07:14:57.004Z,96.60
2019-06-15T07:17:25.417Z,96.60
2019-06-15T07:19:53.819Z,96.20
2019-06-15T07:22:22.311Z,95.70
2019-06-15T07:24:50.722Z,95.50
2019-06-15T07:27:19.124Z,95.70
2019-06-15T07:29:47.538Z,95.90
2019-06-15T07:32:15.981Z,95.80
2019-06-15T07:34:44.380Z,95.20
2019-06-15T07:37:12.770Z,95.00
2019-06-15T07:39:41.211Z,94.50
2019-06-15T07:42:09.883Z,94.70
2019-06-15T07:44:38.271Z,94.80
2019-06-15T07:47:06.700Z,94.70
2019-06-15T07:49:35.189Z,94.00
2019-06-15T07:52:03.649Z,92.90
2019-06-15T07:54:32.099Z,92.50
2019-06-15T07:57:00.759Z,92.40
2019-06-15T07:59:29.239Z,92.00
2019-06-15T08:01:57.646Z,91.70
2019-06-15T08:04:26.042Z,91.40
2019-06-15T08:06:54.446Z,91.60
2019-06-15T08:09:22.878Z,91.50
2019-06-15T08:11:51.551Z,91.30
2019-06-15T08:14:19.955Z,91.30
2019-06-15T08:16:48.355Z,91.50
2019-06-15T08:19:16.770Z,91.70
2019-06-15T08:21:45.182Z,91.50
2019-06-15T08:24:13.580Z,91.60
2019-06-15T08:26:41.993Z,92.10
2019-06-15T08:29:10.470Z,92.60
2019-06-15T08:31:38.877Z,93.10
2019-06-15T08:34:07.382Z,93.20
2019-06-15T08:36:35.762Z,93.30
2019-06-15T08:39:06.207Z,93.50
2019-06-15T08:41:34.628Z,93.40
2019-06-15T08:44:03.036Z,93.70
2019-06-15T08:46:31.691Z,93.50
2019-06-15T08:49:00.163Z,93.60
2019-06-15T08:51:28.574Z,93.50
2019-06-15T08:53:57.012Z,93.30
2019-06-15T08:56:25.523Z,93.30
2019-06-15T08:58:55.747Z,93.40
2019-06-15T09:01:24.134Z,93.60
2019-06-15T09:03:52.641Z,93.40
2019-06-15T09:06:21.302Z,93.30
2019-06-15T09:08:49.700Z,93.10
2019-06-15T09:11:18.094Z,92.90
2019-06-15T09:13:46.515Z,92.80
2019-06-15T09:16:14.922Z,92.60
2019-06-15T09:18:43.385Z,92.50
2019-06-15T09:21:11.800Z,92.20
2019-06-15T09:23:40.191Z,91.30
2019-06-15T09:26:08.607Z,90.80
2019-06-15T09:28:37.007Z,90.70
2019-06-15T09:31:05.488Z,90.40
2019-06-15T09:33:33.870Z,90.30
2019-06-15T09:36:02.377Z,90.10
2019-06-15T09:38:30.867Z,89.40
2019-06-15T09:40:59.263Z,87.60
2019-06-15T09:43:27.674Z,87.50
2019-06-15T09:45:56.080Z,86.90
2019-06-15T09:48:24.483Z,85.60
2019-06-15T09:50:52.878Z,85.50
2019-06-15T09:53:21.529Z,85.00
2019-06-15T09:55:49.924Z,85.00
2019-06-15T09:58:18.311Z,85.00
2019-06-15T10:00:46.731Z,85.80
2019-06-15T10:03:15.127Z,86.50
2019-06-15T10:05:43.549Z,85.90
2019-06-15T10:08:11.950Z,85.50
2019-06-15T10:10:40.366Z,85.80
2019-06-15T10:13:08.841Z,85.80
2019-06-15T10:15:37.617Z,84.90
2019-06-15T10:18:06.022Z,86.30
2019-06-15T10:20:34.415Z,87.10
2019-06-15T10:23:02.834Z,87.70
2019-06-15T10:25:31.231Z,86.00
2019-06-15T10:28:00.050Z,85.00
2019-06-15T10:30:28.450Z,84.50
2019-06-15T10:32:56.862Z,84.30
2019-06-15T10:35:25.259Z,84.40
2019-06-15T10:37:53.678Z,84.00
2019-06-15T10:40:22.459Z,84.70
2019-06-15T10:42:51.151Z,84.90
2019-06-15T10:45:20.899Z,84.10
2019-06-15T10:47:49.397Z,83.20
2019-06-15T10:50:17.830Z,83.50
2019-06-15T10:52:46.249Z,83.60
2019-06-15T10:55:14.786Z,84.00
2019-06-15T10:57:43.194Z,84.50
2019-06-15T11:00:13.433Z,85.70
2019-06-15T11:02:41.999Z,86.60
2019-06-15T11:05:12.506Z,87.60
2019-06-15T11:07:40.903Z,88.00
2019-06-15T11:10:12.536Z,88.80
2019-06-15T11:12:46.155Z,90.00
2019-06-15T11:15:13.092Z,90.20
2019-06-15T11:17:41.496Z,90.50
2019-06-15T11:20:10.044Z,90.70
2019-06-15T11:22:38.439Z,91.10
2019-06-15T11:25:07.389Z,91.20
2019-06-15T11:27:35.813Z,90.20
2019-06-15T11:30:13.460Z,90.60
2019-06-15T11:32:36.218Z,90.60
2019-06-15T11:35:06.278Z,90.00
2019-06-15T11:37:34.671Z,89.10
2019-06-15T11:40:04.428Z,88.30
2019-06-15T11:42:32.833Z,87.60
2019-06-15T11:45:01.260Z,87.10
2019-06-15T11:47:29.731Z,85.70
2019-06-15T11:49:58.151Z,86.30
2019-06-15T11:52:26.550Z,86.70
2019-06-15T11:54:54.951Z,87.40
2019-06-15T11:57:23.342Z,87.90
2019-06-15T11:59:51.762Z,87.90
2019-06-15T12:02:20.174Z,87.30
2019-06-15T12:04:58.034Z,87.20
2019-06-15T12:07:19.051Z,86.90
2019-06-15T12:09:47.464Z,86.70
2019-06-15T12:12:15.874Z,85.60
2019-06-15T12:14:44.287Z,85.40
2019-06-15T12:17:12.702Z,85.10
2019-06-15T12:19:41.163Z,84.70
2019-06-15T12:22:09.583Z,85.00
2019-06-15T12:24:38.011Z,85.60
2019-06-15T12:27:06.459Z,85.60
2019-06-15T12:29:34.950Z,85.30
2019-06-15T12:32:03.357Z,84.20
2019-06-15T12:34:31.743Z,84.90
2019-06-15T12:37:00.158Z,84.80
2019-06-15T12:39:28.563Z,84.80
2019-06-15T12:41:56.979Z,83.90
2019-06-15T12:44:25.448Z,82.80
2019-06-15T12:46:54.033Z,81.90
2019-06-15T12:49:22.438Z,82.20
2019-06-15T12:51:50.847Z,81.90
2019-06-15T12:54:19.238Z,82.40
2019-06-15T12:56:47.670Z,82.60
2019-06-15T12:59:16.115Z,82.30
2019-06-15T13:01:44.548Z,81.50
2019-06-15T13:04:12.950Z,81.90
2019-06-15T13:06:41.409Z,81.70
2019-06-15T13:09:09.834Z,82.20
2019-06-15T13:11:38.243Z,82.80
2019-06-15T13:14:06.636Z,82.90
2019-06-15T13:16:39.368Z,82.30
2019-06-15T13:19:05.235Z,82.40
2019-06-15T13:21:33.630Z,81.80
2019-06-15T13:24:02.035Z,81.90
2019-06-15T13:26:30.445Z,81.70
2019-06-15T13:28:59.169Z,82.00
2019-06-15T13:31:27.620Z,82.40
2019-06-15T13:33:56.015Z,82.30
2019-06-15T13:36:24.418Z,81.90
2019-06-15T13:38:52.811Z,81.00
2019-06-15T13:41:24.397Z,80.80
2019-06-15T13:43:51.358Z,80.70
2019-06-15T13:46:19.751Z,81.00
2019-06-15T13:48:48.175Z,81.00
2019-06-15T13:51:16.578Z,80.40
2019-06-15T13:53:44.984Z,79.80
2019-06-15T13:56:13.391Z,79.90
2019-06-15T13:58:41.859Z,79.70
2019-06-15T14:01:10.285Z,79.40
2019-06-15T14:03:39.114Z,78.70
2019-06-15T14:06:07.512Z,78.10
2019-06-15T14:08:35.934Z,77.70
2019-06-15T14:11:04.330Z,76.50
2019-06-15T14:13:32.818Z,75.70
2019-06-15T14:16:01.304Z,74.20
2019-06-15T14:18:29.707Z,74.10
2019-06-15T14:20:58.183Z,72.90
2019-06-15T14:23:26.577Z,71.80
2019-06-15T14:25:54.995Z,70.50
2019-06-15T14:28:23.388Z,68.40
2019-06-15T14:30:52.027Z,66.30
2019-06-15T14:33:20.441Z,65.50
2019-06-15T14:35:48.969Z,65.30
2019-06-15T14:38:17.382Z,65.50
2019-06-15T14:40:45.807Z,65.90
2019-06-15T14:43:14.200Z,66.60
2019-06-15T14:45:58.103Z,66.30
2019-06-15T14:48:12.967Z,64.30
2019-06-15T14:50:41.552Z,63.50
2019-06-15T14:53:09.963Z,63.80
2019-06-15T14:55:38.354Z,64.20
2019-06-15T14:58:06.750Z,65.00
2019-06-15T15:00:36.009Z,66.50
2019-06-15T15:03:06.756Z,68.50
2019-06-15T15:05:36.503Z,68.90
2019-06-15T15:08:06.887Z,67.50
2019-06-15T15:10:36.922Z,65.70
2019-06-15T15:13:06.695Z,64.30
2019-06-15T15:15:36.456Z,64.20
2019-06-15T15:18:06.964Z,63.70
2019-06-15T15:20:35.147Z,62.50
2019-06-15T15:23:06.209Z,62.00
2019-06-15T15:25:33.655Z,62.60
2019-06-15T15:28:02.070Z,62.60
2019-06-15T15:30:40.684Z,62.80
2019-06-15T15:33:09.535Z,63.30
2019-06-15T15:35:37.942Z,64.00
2019-06-15T15:38:06.391Z,62.70
2019-06-15T15:40:36.489Z,61.40
2019-06-15T15:43:06.930Z,61.40
2019-06-15T15:45:36.966Z,61.40
2019-06-15T15:48:06.854Z,60.80
2019-06-15T15:50:37.088Z,60.70
2019-06-15T15:53:05.807Z,61.40
2019-06-15T15:55:34.229Z,61.00
2019-06-15T15:58:02.750Z,61.20
2019-06-15T16:00:33.821Z,61.10
2019-06-15T16:03:02.232Z,61.90
2019-06-15T16:05:30.855Z,59.80
2019-06-15T16:07:59.273Z,58.40
2019-06-15T16:10:27.705Z,57.30
2019-06-15T16:12:56.857Z,56.40
2019-06-15T16:15:26.540Z,55.30
2019-06-15T16:17:56.327Z,54.60
2019-06-15T16:20:26.407Z,53.60
2019-06-15T16:22:56.366Z,54.00
2019-06-15T16:25:26.678Z,55.60
2019-06-15T16:27:56.702Z,56.60
2019-06-15T16:30:59.642Z,56.90
2019-06-15T16:33:07.336Z,57.70
2019-06-15T16:35:36.094Z,59.10
2019-06-15T16:38:06.968Z,61.20
2019-06-15T16:40:38.153Z,61.10
2019-06-15T16:43:07.308Z,59.30
2019-06-15T16:45:36.645Z,58.10
2019-06-15T16:48:06.374Z,57.30
2019-06-15T16:50:36.680Z,57.90
2019-06-15T16:53:05.519Z,57.90
2019-06-15T16:55:36.556Z,59.20
2019-06-15T16:58:04.114Z,61.20
2019-06-15T17:00:51.863Z,61.40
2019-06-15T17:03:25.121Z,59.30
2019-06-15T17:05:50.412Z,56.90
2019-06-15T17:08:18.838Z,55.20
2019-06-15T17:10:47.233Z,53.60
2019-06-15T17:13:16.131Z,53.60
2019-06-15T17:18:14.343Z,52.80
2019-06-15T17:20:48.112Z,52.30
2019-06-15T17:23:16.787Z,50.30
2019-06-15T17:25:45.419Z,48.40
2019-06-15T17:28:14.282Z,47.20
2019-06-15T17:30:43.734Z,45.90
2019-06-15T17:33:12.226Z,45.00
2019-06-15T17:35:55.104Z,44.00
2019-06-15T17:38:10.748Z,43.70
2019-06-15T17:40:39.154Z,43.10
2019-06-15T17:43:07.560Z,43.30
2019-06-15T17:45:37.545Z,43.00
2019-06-15T17:48:06.552Z,43.70
2019-06-15T17:50:41.092Z,44.40
2019-06-15T17:53:09.647Z,45.20
2019-06-15T17:55:38.210Z,45.50
2019-06-15T17:58:07.112Z,45.80
2019-06-15T18:00:43.527Z,46.40
2019-06-15T18:03:12.009Z,46.80
2019-06-15T18:05:40.666Z,47.30
2019-06-15T18:08:09.190Z,48.00
2019-06-15T18:10:37.747Z,49.10
2019-06-15T18:13:07.066Z,50.80
2019-06-15T18:15:36.321Z,52.80
2019-06-15T18:18:07.136Z,54.90
2019-06-15T18:20:36.408Z,57.00
2019-06-15T18:23:06.004Z,58.80
2019-06-15T18:25:37.039Z,60.00
2019-06-15T18:28:06.417Z,61.20
2019-06-15T18:30:37.098Z,62.00
2019-06-15T18:33:07.058Z,63.20
2019-06-15T18:35:36.131Z,64.70
2019-06-15T18:38:07.020Z,66.60
2019-06-15T18:40:37.124Z,68.20
2019-06-15T18:43:07.296Z,70.10
2019-06-15T18:45:36.144Z,72.40
2019-06-15T18:48:06.191Z,75.00
2019-06-15T18:50:37.721Z,77.20
2019-06-15T18:53:07.163Z,79.00
2019-06-15T18:55:36.402Z,80.80
2019-06-15T18:58:05.642Z,82.80
2019-06-15T19:00:36.843Z,84.40
2019-06-15T19:03:06.861Z,86.10
2019-06-15T19:05:37.355Z,87.90
2019-06-15T19:08:06.597Z,89.80
2019-06-15T19:10:36.405Z,90.70
2019-06-15T19:13:07.433Z,91.30
2019-06-15T19:15:37.325Z,92.00
2019-06-15T19:18:07.458Z,92.70
2019-06-15T19:20:37.225Z,93.20
2019-06-15T19:23:06.906Z,93.70
2019-06-15T19:25:36.608Z,94.30
2019-06-15T19:28:05.356Z,94.80
2019-06-15T19:30:33.742Z,95.40
2019-06-15T19:33:02.162Z,95.80
2019-06-15T19:35:30.571Z,96.30
2019-06-15T19:37:58.992Z,96.70
2019-06-15T19:40:27.362Z,97.10
2019-06-15T19:42:57.018Z,97.60
2019-06-15T19:45:26.760Z,97.90
2019-06-15T19:47:55.201Z,98.30
2019-06-15T19:50:23.623Z,98.60
2019-06-15T19:52:52.032Z,99.00
2019-06-15T19:55:20.419Z,99.20
2019-06-15T19:57:49.068Z,99.40
2019-06-15T20:00:17.643Z,99.50
2019-06-15T20:02:48.106Z,99.70
2019-06-15T20:05:16.586Z,99.90
2019-06-15T20:07:46.621Z,99.90
2019-06-15T20:10:15.691Z,99.90
2019-06-15T20:12:46.459Z,99.90
2019-06-15T20:15:16.813Z,99.90
2019-06-15T20:17:48.500Z,99.90
2019-06-15T20:20:17.170Z,99.90
2019-06-15T20:22:46.778Z,99.90
2019-06-15T20:25:16.067Z,99.90
2019-06-15T20:27:46.755Z,99.90
2019-06-15T20:30:16.991Z,99.90
2019-06-15T20:32:46.250Z,99.90
2019-06-15T20:35:20.634Z,99.90
2019-06-15T20:37:46.521Z,99.90
2019-06-15T20:40:16.627Z,99.90
2019-06-15T20:42:46.123Z,99.90
2019-06-15T20:45:15.702Z,99.90
2019-06-15T20:47:44.172Z,99.90
2019-06-15T20:50:25.462Z,99.90
2019-06-15T20:52:47.029Z,99.90
2019-06-15T20:55:16.239Z,99.90
2019-06-15T20:57:46.129Z,99.90
2019-06-15T21:00:16.744Z,99.90
2019-06-15T21:02:45.398Z,99.90
2019-06-15T21:05:32.380Z,99.90
2019-06-15T21:07:46.561Z,99.90
2019-06-15T21:10:16.058Z,99.90
2019-06-15T21:12:46.900Z,99.90
2019-06-15T21:15:15.035Z,99.90
2019-06-15T21:17:43.515Z,99.90
2019-06-15T21:20:12.562Z,99.90
2019-06-15T21:22:40.971Z,99.90
2019-06-15T21:25:10.012Z,99.90
2019-06-15T21:27:38.762Z,99.90
2019-06-15T21:30:09.921Z,99.90
2019-06-15T21:32:38.477Z,99.90
2019-06-15T21:35:07.623Z,99.90
2019-06-15T21:37:37.031Z,99.90
2019-06-15T21:40:06.906Z,99.90
2019-06-15T21:42:36.207Z,99.90
2019-06-15T21:45:07.838Z,99.90
2019-06-15T21:47:37.155Z,99.90
2019-06-15T21:50:08.819Z,99.90
2019-06-15T21:52:37.226Z,99.90
2019-06-15T21:55:07.151Z,99.90
2019-06-15T21:57:36.474Z,99.90
2019-06-15T22:00:17.465Z,99.90
2019-06-15T22:02:47.085Z,99.90
2019-06-15T22:05:16.594Z,99.90
2019-06-15T22:07:47.463Z,99.90
2019-06-15T22:10:16.032Z,99.90
2019-06-15T22:12:44.562Z,99.90
2019-06-15T22:15:15.992Z,99.90
2019-06-15T22:17:43.899Z,99.90
2019-06-15T22:20:13.279Z,99.90
2019-06-15T22:22:41.692Z,99.90
2019-06-15T22:25:10.159Z,99.90
2019-06-15T22:27:38.574Z,99.90
2019-06-15T22:30:08.033Z,99.90
2019-06-15T22:32:36.442Z,99.90
2019-06-15T22:35:07.934Z,99.90
2019-06-15T22:37:36.346Z,99.90
2019-06-15T22:40:08.894Z,99.90
2019-06-15T22:42:37.347Z,99.90
2019-06-15T22:45:06.896Z,99.90
2019-06-15T22:47:36.143Z,99.90
2019-06-15T22:50:07.166Z,99.90
2019-06-15T22:52:36.391Z,99.90
2019-06-15T22:55:09.351Z,99.90
2019-06-15T22:57:37.746Z,99.90
2019-06-15T23:00:07.766Z,99.90
2019-06-15T23:02:36.750Z,99.90
2019-06-15T23:05:06.437Z,99.90
2019-06-15T23:07:36.294Z,99.90
2019-06-15T23:10:08.151Z,99.90
2019-06-15T23:12:37.216Z,99.90
2019-06-15T23:15:07.325Z,99.90
2019-06-15T23:17:37.153Z,99.90
2019-06-15T23:20:10.140Z,99.90
2019-06-15T23:22:38.544Z,99.90
2019-06-15T23:25:07.291Z,99.90
2019-06-15T23:27:35.751Z,99.90
2019-06-15T23:30:08.191Z,99.90
2019-06-15T23:32:36.635Z,99.90
2019-06-15T23:35:07.935Z,99.90
2019-06-15T23:37:37.495Z,99.90
2019-06-15T23:40:20.103Z,99.90
2019-06-15T23:42:49.655Z,99.90
2019-06-15T23:45:19.400Z,99.90
2019-06-15T23:47:48.059Z,99.90
2019-06-15T23:50:17.911Z,99.90
2019-06-15T23:52:47.965Z,99.90
2019-06-15T23:55:17.504Z,99.90
2019-06-15T23:57:46.495Z,99.90
